Time;durP1;ratioP1;P1;durP2;ratioP2;P2;SDS_P1;SDS_P2;PMS_P1;PMS_P2;Temp;Humidity;BMP_temperature;BMP_pressure;BME280_temperature;BME280_humidity;BME280_pressure;Samples;Min_cycle;Max_cycle;Signal;HPM_P1;HPM_P2
2021/03/29 00:00:09;;;;;;;45.03;25.65;;;;;;;1.23;70.09;95770.57;1698279;83;21175;-55
2021/03/29 00:02:36;;;;;;;43.80;25.57;;;;;;;1.26;70.15;95778.77;1724730;83;21259;-56
2021/03/29 00:05:07;;;;;;;46.45;26.17;;;;;;;1.25;70.15;95775.85;1724647;83;21176;-56
2021/03/29 00:07:36;;;;;;;42.08;24.32;;;;;;;1.24;70.16;95777.00;1724915;83;21590;-56
2021/03/29 00:10:08;;;;;;;36.98;22.22;;;;;;;1.25;70.15;95777.20;1724737;83;21147;-55
2021/03/29 00:12:38;;;;;;;31.35;19.45;;;;;;;1.24;69.86;95777.00;1724687;83;21139;-55
2021/03/29 00:15:08;;;;;;;32.35;21.37;;;;;;;1.22;69.77;95779.84;1698340;83;21391;-55
2021/03/29 00:17:40;;;;;;;42.40;22.22;;;;;;;1.15;69.82;95776.45;1724779;83;21134;-59
2021/03/29 00:20:21;;;;;;;42.35;22.75;;;;;;;1.11;69.87;95783.73;1724818;83;21135;-56
2021/03/29 00:22:50;;;;;;;45.50;24.95;;;;;;;1.12;69.91;95785.89;1724705;83;21143;-55
2021/03/29 00:25:20;;;;;;;45.08;23.92;;;;;;;1.13;69.97;95780.68;1724596;83;21177;-55
2021/03/29 00:27:48;;;;;;;45.70;25.17;;;;;;;1.15;70.02;95779.16;1724562;83;21209;-54
2021/03/29 00:30:22;;;;;;;44.03;23.50;;;;;;;1.18;69.89;95775.72;1698371;83;21178;-55
2021/03/29 00:32:51;;;;;;;40.43;22.45;;;;;;;1.19;69.96;95781.38;1724619;83;21091;-55
2021/03/29 00:35:23;;;;;;;55.38;32.73;;;;;;;1.20;69.79;95778.87;1724714;83;21524;-55
2021/03/29 00:37:54;;;;;;;41.90;26.30;;;;;;;1.20;69.88;95778.87;1724743;83;21600;-57
2021/03/29 00:40:23;;;;;;;;;;;;;;;1.24;69.95;95779.70;1727210;83;21370;-62
2021/03/29 00:43:00;;;;;;;39.75;21.27;;;;;;;1.28;69.58;95773.77;1724519;81;20879;-55
2021/03/29 00:45:29;;;;;;;34.00;18.85;;;;;;;1.15;69.52;95773.73;1724562;83;21211;-56
2021/03/29 00:47:57;;;;;;;29.20;19.50;;;;;;;1.11;69.67;95772.91;1724535;83;21223;-56
2021/03/29 00:50:54;;;;;;;56.05;30.50;;;;;;;1.08;69.85;95775.55;1724522;83;21591;-56
2021/03/29 00:53:23;;;;;;;36.73;22.80;;;;;;;1.07;69.96;95771.27;1713268;83;21199;-56
2021/03/29 00:55:53;;;;;;;26.42;18.50;;;;;;;1.06;69.63;95769.70;1724559;83;21091;-63
2021/03/29 00:58:23;;;;;;;34.10;20.65;;;;;;;1.02;69.49;95772.94;1724674;83;21125;-56
2021/03/29 01:00:56;;;;;;;26.20;18.50;;;;;;;0.89;69.45;95782.37;1724624;83;21079;-56
2021/03/29 01:03:28;;;;;;;31.20;20.32;;;;;;;0.84;70.12;95779.41;1724757;83;21083;-59
2021/03/29 01:06:17;;;;;;;31.70;20.32;;;;;;;0.90;69.91;95774.45;1724914;83;21275;-59
2021/03/29 01:08:50;;;;;;;32.55;22.58;;;;;;;0.88;70.14;95780.25;1698157;83;21223;-57
2021/03/29 01:11:23;;;;;;;76.67;46.35;;;;;;;0.91;70.25;95767.89;1724622;83;21572;-57
2021/03/29 01:14:14;;;;;;;56.15;35.03;;;;;;;0.95;70.14;95767.41;1724564;83;21096;-57
2021/03/29 01:16:56;;;;;;;58.75;35.48;;;;;;;0.94;69.98;95772.02;1713157;83;21651;-55
2021/03/29 01:19:34;;;;;;;44.58;27.02;;;;;;;0.91;69.96;95765.98;1724643;83;21445;-56
2021/03/29 01:22:05;;;;;;;38.08;24.30;;;;;;;0.88;69.76;95769.41;1724607;83;21187;-55
2021/03/29 01:24:42;;;;;;;45.28;25.23;;;;;;;0.88;69.62;95768.06;1724547;83;21147;-55
2021/03/29 01:27:14;;;;;;;43.65;26.68;;;;;;;0.88;69.90;95772.13;1724536;83;21096;-60
2021/03/29 01:29:42;;;;;;;;;;;;;;;0.92;69.82;95771.61;1727171;83;21199;-56
2021/03/29 01:32:10;;;;;;;52.10;29.18;;;;;;;0.90;69.87;95775.25;1724609;83;22293;-57
2021/03/29 01:34:39;;;;;;;59.30;32.45;;;;;;;0.87;69.77;95774.62;1698052;83;21154;-59
2021/03/29 01:37:09;;;;;;;62.20;31.15;;;;;;;0.82;69.77;95777.63;1724540;83;21250;-57
2021/03/29 01:39:37;;;;;;;55.60;28.32;;;;;;;0.75;69.52;95780.78;1724698;83;21627;-55
2021/03/29 01:42:06;;;;;;;47.70;27.95;;;;;;;0.63;69.90;95783.05;1724576;83;21170;-55
2021/03/29 01:44:35;;;;;;;43.87;27.10;;;;;;;0.59;70.06;95779.50;1724451;81;21575;-55
2021/03/29 01:47:07;;;;;;;45.52;27.67;;;;;;;0.58;70.31;95791.48;1724528;83;21643;-55
2021/03/29 01:49:35;;;;;;;43.87;29.57;;;;;;;0.61;70.00;95786.70;1724799;83;21151;-56
2021/03/29 01:52:04;;;;;;;50.00;30.65;;;;;;;0.57;70.12;95788.56;1724607;83;21207;-56
2021/03/29 01:54:34;;;;;;;55.12;31.02;;;;;;;0.54;70.11;95786.57;1724566;83;21152;-56
2021/03/29 01:57:08;;;;;;;59.58;33.92;;;;;;;0.52;70.35;95786.16;1724577;83;21217;-55
2021/03/29 01:59:38;;;;;;;89.52;46.13;;;;;;;0.49;70.37;95787.42;1724533;83;21171;-55
2021/03/29 02:02:07;;;;;;;72.92;40.15;;;;;;;0.49;70.48;95777.39;1724534;83;21163;-55
2021/03/29 02:04:36;;;;;;;60.50;34.48;;;;;;;0.45;70.70;95779.23;1724548;83;21139;-55
2021/03/29 02:07:06;;;;;;;38.38;24.18;;;;;;;0.47;70.72;95774.27;1724578;83;21148;-55
2021/03/29 02:09:35;;;;;;;28.92;18.15;;;;;;;0.46;70.63;95787.59;1724606;83;21612;-55
2021/03/29 02:12:07;;;;;;;25.10;17.85;;;;;;;0.44;70.70;95784.43;1724594;83;21568;-55
2021/03/29 02:14:35;;;;;;;48.50;27.00;;;;;;;0.51;70.80;95789.20;1724705;83;21152;-55
2021/03/29 02:17:08;;;;;;;47.25;27.07;;;;;;;0.63;70.59;95790.41;1724557;83;21136;-55
2021/03/29 02:19:36;;;;;;;34.53;22.10;;;;;;;0.66;70.20;95791.84;1724732;83;21615;-56
2021/03/29 02:22:05;;;;;;;49.30;23.80;;;;;;;0.68;69.92;95792.81;1724524;83;21219;-56
2021/03/29 02:24:33;;;;;;;65.75;26.87;;;;;;;0.61;69.81;95796.17;1698058;83;21143;-55
2021/03/29 02:27:02;;;;;;;51.98;26.85;;;;;;;0.55;70.32;95792.78;1724497;83;21171;-55
2021/03/29 02:29:29;;;;;;;37.23;21.33;;;;;;;0.60;70.18;95798.67;1724566;83;21694;-55
2021/03/29 02:31:58;;;;;;;39.30;21.65;;;;;;;0.61;69.84;95790.76;1724516;83;21655;-56
2021/03/29 02:34:26;;;;;;;36.70;20.90;;;;;;;0.59;69.64;95790.33;1724437;83;21175;-56
2021/03/29 02:36:56;;;;;;;36.80;22.45;;;;;;;0.57;69.90;95791.27;1724387;83;21950;-59
2021/03/29 02:39:24;;;;;;;32.40;21.48;;;;;;;0.61;70.11;95796.76;1674545;83;21091;-58
2021/03/29 02:41:53;;;;;;;35.92;22.20;;;;;;;0.66;69.95;95793.75;1724441;83;21079;-57
2021/03/29 02:44:21;;;;;;;32.15;23.05;;;;;;;0.64;69.85;95798.19;1741076;81;21052;-54
2021/03/29 02:46:49;;;;;;;35.25;21.95;;;;;;;0.65;69.94;95798.40;1751317;82;21365;-55
2021/03/29 02:49:17;;;;;;;30.23;20.02;;;;;;;0.64;69.57;95803.60;1751369;82;21615;-56
2021/03/29 02:51:47;;;;;;;58.15;35.50;;;;;;;0.63;69.59;95796.59;1722300;82;21163;-55
2021/03/29 02:54:15;;;;;;;57.08;34.35;;;;;;;0.63;69.89;95806.07;1751391;82;21207;-56
2021/03/29 02:56:44;;;;;;;44.15;27.55;;;;;;;0.67;69.62;95801.53;1751304;82;21223;-56
2021/03/29 02:59:15;;;;;;;52.00;27.73;;;;;;;0.68;69.58;95807.71;1751306;82;21109;-56
2021/03/29 03:01:43;;;;;;;53.35;30.20;;;;;;;0.70;69.59;95806.78;1751227;82;21246;-56
2021/03/29 03:04:14;;;;;;;36.15;21.05;;;;;;;0.70;69.29;95804.87;1751207;82;21084;-62
2021/03/29 03:06:42;;;;;;;42.33;23.22;;;;;;;0.67;69.08;95804.79;1751336;82;21100;-57
2021/03/29 03:09:12;;;;;;;53.55;26.85;;;;;;;0.60;68.87;95803.31;1751301;82;21067;-60
2021/03/29 03:11:45;;;;;;;73.15;35.65;;;;;;;0.48;68.99;95807.52;1751287;82;23545;-56
2021/03/29 03:14:14;;;;;;;65.12;33.40;;;;;;;0.39;69.44;95806.97;1751356;82;21848;-55
2021/03/29 03:16:44;;;;;;;41.95;24.15;;;;;;;0.39;69.61;95809.09;1751175;82;21166;-55
2021/03/29 03:19:12;;;;;;;35.05;21.97;;;;;;;0.44;69.45;95806.09;1751280;82;21737;-55
2021/03/29 03:21:42;;;;;;;49.77;27.40;;;;;;;0.49;69.03;95805.82;1751292;82;21099;-55
2021/03/29 03:24:11;;;;;;;37.28;22.30;;;;;;;0.48;69.06;95808.31;1751040;82;21208;-57
2021/03/29 03:26:39;;;;;;;26.90;17.98;;;;;;;0.51;69.06;95808.95;1751246;82;21139;-61
2021/03/29 03:29:07;;;;;;;45.20;26.60;;;;;;;0.55;68.82;95808.44;1751277;82;21595;-54
2021/03/29 03:31:35;;;;;;;47.75;30.25;;;;;;;0.53;69.01;95805.87;1751230;81;21216;-56
2021/03/29 03:34:03;;;;;;;40.78;25.62;;;;;;;0.52;69.10;95805.10;1751311;82;21147;-56
2021/03/29 03:36:32;;;;;;;46.35;29.75;;;;;;;0.48;69.04;95805.61;1751417;82;21357;-54
2021/03/29 03:39:00;;;;;;;40.63;28.05;;;;;;;0.34;69.19;95807.23;1751253;82;21171;-56
2021/03/29 03:41:32;;;;;;;50.55;30.05;;;;;;;0.30;69.48;95805.02;1751225;82;21170;-55
2021/03/29 03:44:01;;;;;;;;;;;;;;;0.20;69.49;95807.73;1750246;82;21631;-56
2021/03/29 03:46:36;;;;;;;33.88;20.05;;;;;;;0.12;69.76;95815.50;1740761;82;20280;-55
2021/03/29 03:49:19;;;;;;;25.68;17.82;;;;;;;0.10;69.92;95806.95;1692629;84;22200;-55
2021/03/29 03:51:47;;;;;;;43.70;25.83;;;;;;;0.06;70.01;95816.13;1741099;82;21235;-55
2021/03/29 03:54:17;;;;;;;37.40;22.98;;;;;;;0.10;70.21;95813.72;1715725;82;21175;-56
2021/03/29 03:56:46;;;;;;;52.95;32.38;;;;;;;0.14;70.20;95810.52;1692594;84;21222;-55
2021/03/29 03:59:14;;;;;;;64.80;36.58;;;;;;;0.16;70.17;95816.34;1740803;82;21658;-55
2021/03/29 04:02:00;;;;;;;59.90;35.85;;;;;;;0.23;70.21;95813.78;1692715;84;21451;-55
2021/03/29 04:04:28;;;;;;;189.60;87.12;;;;;;;0.31;70.00;95818.21;1740706;82;21219;-56
2021/03/29 04:06:58;;;;;;;202.00;100.10;;;;;;;0.39;70.18;95824.55;1667119;84;21246;-55
2021/03/29 04:09:46;;;;;;;168.40;85.47;;;;;;;0.50;69.70;95816.06;1740965;82;21595;-56
2021/03/29 04:12:05;;;;;;;90.10;52.17;;;;;;;0.59;69.77;95820.70;1704332;83;21187;-55
2021/03/29 04:14:30;;;;;;;74.65;43.42;;;;;;;0.66;69.48;95814.86;1740787;82;21220;-55
2021/03/29 04:16:58;;;;;;;168.45;87.75;;;;;;;0.73;69.16;95821.75;1692626;84;21654;-54
2021/03/29 04:19:26;;;;;;;140.85;76.65;;;;;;;0.74;69.24;95827.38;1740801;82;21132;-59
2021/03/29 04:21:56;;;;;;;139.88;78.55;;;;;;;0.83;69.11;95826.59;1711184;83;21235;-58
2021/03/29 04:24:24;;;;;;;119.80;67.62;;;;;;;0.92;69.16;95828.48;1740916;82;21093;-64
2021/03/29 04:26:52;;;;;;;82.78;48.58;;;;;;;1.01;69.05;95833.13;1692745;84;21166;-55
2021/03/29 04:29:20;;;;;;;61.37;34.33;;;;;;;1.10;68.90;95828.23;1740907;82;21600;-55
2021/03/29 04:31:49;;;;;;;66.00;39.18;;;;;;;1.18;68.50;95828.56;1692459;83;21185;-56
2021/03/29 04:34:18;;;;;;;57.05;37.93;;;;;;;1.16;68.36;95828.14;1740784;82;21139;-56
2021/03/29 04:36:46;;;;;;;63.50;40.80;;;;;;;1.04;68.36;95831.04;1692629;84;21670;-56
2021/03/29 04:39:14;;;;;;;59.10;35.48;;;;;;;0.99;68.98;95828.61;1740817;82;22393;-57
2021/03/29 04:41:42;;;;;;;65.62;39.33;;;;;;;1.01;68.75;95835.03;1692531;84;21517;-56
2021/03/29 04:44:10;;;;;;;56.42;35.85;;;;;;;0.89;68.97;95830.56;1740648;82;21104;-60
2021/03/29 04:46:38;;;;;;;99.30;57.53;;;;;;;0.88;69.18;95826.30;1692571;84;21163;-57
2021/03/29 04:49:06;;;;;;;82.90;48.83;;;;;;;0.87;69.42;95827.44;1740875;82;21584;-56
2021/03/29 04:51:34;;;;;;;76.30;43.40;;;;;;;0.93;69.50;95830.05;1692564;84;21229;-56
2021/03/29 04:54:03;;;;;;;102.38;60.85;;;;;;;1.06;69.76;95825.24;1740873;82;21167;-57
2021/03/29 04:56:33;;;;;;;82.12;49.42;;;;;;;1.19;69.34;95821.22;1692609;84;21136;-55
2021/03/29 04:59:02;;;;;;;79.05;45.35;;;;;;;1.25;69.18;95820.56;1740763;82;21210;-55
2021/03/29 05:01:32;;;;;;;78.55;41.15;;;;;;;1.31;69.52;95819.11;1740802;81;21171;-55
2021/03/29 05:04:00;;;;;;;67.47;37.33;;;;;;;1.49;69.38;95822.90;1740895;82;22169;-56
2021/03/29 05:06:31;;;;;;;71.17;42.03;;;;;;;1.53;68.88;95828.38;1692591;84;21230;-56
2021/03/29 05:08:59;;;;;;;77.85;44.03;;;;;;;1.51;69.12;95830.09;1740830;82;21757;-56
2021/03/29 05:11:35;;;;;;;84.85;48.40;;;;;;;1.59;69.01;95830.44;1692451;84;21210;-57
2021/03/29 05:13:58;;;;;;;102.92;52.03;;;;;;;1.64;68.87;95830.67;1740064;82;21219;-57
2021/03/29 05:16:26;;;;;;;113.83;49.75;;;;;;;1.75;68.89;95828.36;1692669;84;22246;-61
2021/03/29 05:18:56;;;;;;;72.97;42.33;;;;;;;1.85;68.89;95831.23;1691932;84;21186;-69
2021/03/29 05:21:25;;;;;;;73.60;45.03;;;;;;;1.94;68.60;95835.05;1691642;84;21246;-58
2021/03/29 05:23:54;;;;;;;87.42;48.00;;;;;;;1.91;68.80;95830.33;1731383;82;21481;-59
2021/03/29 05:26:21;;;;;;;99.50;55.23;;;;;;;1.98;68.91;95829.86;1722335;83;21149;-56
2021/03/29 05:28:51;;;;;;;99.65;58.48;;;;;;;2.18;68.55;95831.89;1716911;82;21220;-56
2021/03/29 05:31:19;;;;;;;100.70;62.70;;;;;;;2.40;68.19;95833.17;1689642;84;21205;-56
2021/03/29 05:33:47;;;;;;;129.30;81.63;;;;;;;2.54;67.90;95835.28;1693053;83;21652;-58
2021/03/29 05:36:17;;;;;;;138.32;78.40;;;;;;;2.70;67.70;95829.08;1719770;83;21220;-62
2021/03/29 05:38:45;;;;;;;109.42;64.85;;;;;;;2.86;67.39;95835.09;1666700;84;21272;-57
2021/03/29 05:41:14;;;;;;;98.95;56.10;;;;;;;3.00;66.65;95831.94;1740568;82;21255;-57
2021/03/29 05:43:44;;;;;;;82.97;48.78;;;;;;;3.15;66.17;95833.66;1688180;84;21181;-59
2021/03/29 05:46:12;;;;;;;60.78;38.38;;;;;;;3.22;65.71;95833.72;1730594;82;21513;-58
2021/03/29 05:48:39;;;;;;;90.72;47.15;;;;;;;3.27;65.30;95824.45;1726020;82;21204;-58
2021/03/29 05:51:08;;;;;;;60.15;28.75;;;;;;;3.26;65.22;95830.45;1730269;82;21148;-65
2021/03/29 05:53:35;;;;;;;46.18;25.10;;;;;;;3.23;65.39;95822.28;1731120;82;22124;-60
2021/03/29 05:56:05;;;;;;;47.70;30.70;;;;;;;3.31;64.58;95824.69;1722092;82;21667;-60
2021/03/29 05:58:37;;;;;;;64.95;38.13;;;;;;;3.43;64.58;95820.91;1696251;82;21196;-64
2021/03/29 06:01:02;;;;;;;85.22;54.55;;;;;;;3.61;64.69;95823.41;1726734;82;21180;-60
2021/03/29 06:03:39;;;;;;;90.50;54.35;;;;;;;3.81;64.59;95828.01;1745123;80;21151;-67
2021/03/29 06:06:19;;;;;;;97.42;59.98;;;;;;;3.90;64.60;95835.28;1720920;82;21226;-59
2021/03/29 06:08:51;;;;;;;73.30;45.35;;;;;;;3.83;64.44;95827.84;1738939;81;21210;-61
2021/03/29 06:11:31;;;;;;;70.92;44.18;;;;;;;3.81;64.02;95832.89;1741344;81;21642;-61
2021/03/29 06:14:22;;;;;;;67.47;36.67;;;;;;;3.72;64.25;95837.86;1724833;81;21862;-58
2021/03/29 06:16:57;;;;;;;55.15;33.48;;;;;;;3.63;64.19;95833.89;1753695;80;21143;-59
2021/03/29 06:19:54;;;;;;;49.70;30.62;;;;;;;3.61;64.35;95838.36;1757018;81;21592;-59
2021/03/29 06:22:34;;;;;;;57.60;35.78;;;;;;;3.71;64.49;95841.73;1755969;81;22186;-58
2021/03/29 06:25:21;;;;;;;49.03;33.02;;;;;;;3.83;64.32;95837.38;1750956;81;21539;-60
2021/03/29 06:27:56;;;;;;;45.30;28.55;;;;;;;4.08;64.15;95838.91;1755316;81;21226;-60
2021/03/29 06:30:35;;;;;;;52.10;34.30;;;;;;;4.30;63.58;95840.04;1752961;80;21155;-59
2021/03/29 06:33:18;;;;;;;63.50;40.92;;;;;;;4.58;62.99;95838.05;1712183;81;21405;-59
2021/03/29 06:35:51;;;;;;;47.27;32.63;;;;;;;4.90;62.34;95841.11;1742138;81;21757;-60
2021/03/29 06:38:28;;;;;;;45.92;26.73;;;;;;;5.13;61.61;95841.56;1755098;81;21196;-67
2021/03/29 06:40:59;;;;;;;63.20;35.92;;;;;;;5.27;60.43;95846.46;1709814;82;21227;-61
2021/03/29 06:43:37;;;;;;;59.05;33.13;;;;;;;5.46;59.99;95842.62;1739965;81;21242;-63
2021/03/29 06:46:23;;;;;;;45.58;29.25;;;;;;;5.56;60.38;95847.30;1740143;82;21464;-59
2021/03/29 06:48:52;;;;;;;57.35;36.03;;;;;;;5.59;60.19;95845.17;1738053;81;21140;-60
2021/03/29 06:51:26;;;;;;;64.07;39.38;;;;;;;5.55;60.37;95845.73;1711041;83;21155;-61
2021/03/29 06:54:08;;;;;;;45.55;29.20;;;;;;;5.55;60.41;95850.62;1714372;82;21575;-59
2021/03/29 06:56:44;;;;;;;44.67;29.20;;;;;;;5.58;60.00;95847.11;1714323;83;21189;-62
2021/03/29 06:59:19;;;;;;;45.67;29.02;;;;;;;5.54;59.75;95848.27;1714657;83;21480;-57
2021/03/29 07:01:53;;;;;;;43.52;29.67;;;;;;;5.51;59.70;95846.31;1707006;83;21199;-67
2021/03/29 07:04:25;;;;;;;39.63;25.95;;;;;;;5.58;59.95;95842.25;1714770;83;21122;-61
2021/03/29 07:06:54;;;;;;;36.80;24.90;;;;;;;5.66;59.69;95843.23;1713518;83;21214;-62
2021/03/29 07:09:23;;;;;;;25.85;19.12;;;;;;;5.77;59.32;95833.69;1711352;83;21130;-57
2021/03/29 07:11:52;;;;;;;24.60;18.48;;;;;;;5.84;58.44;95836.44;1712146;83;21223;-59
2021/03/29 07:14:21;;;;;;;23.80;16.95;;;;;;;5.95;57.90;95845.42;1737234;82;21231;-59
2021/03/29 07:16:50;;;;;;;19.60;15.28;;;;;;;6.06;57.27;95839.35;1707395;82;21119;-63
2021/03/29 07:19:18;;;;;;;24.85;17.77;;;;;;;6.16;56.95;95833.88;1730532;82;21139;-57
2021/03/29 07:21:48;;;;;;;24.20;17.85;;;;;;;6.25;56.70;95834.27;1707263;83;21189;-62
2021/03/29 07:24:17;;;;;;;22.48;15.45;;;;;;;6.33;56.20;95832.30;1707949;82;21211;-61
2021/03/29 07:26:58;;;;;;;23.20;15.30;;;;;;;6.30;55.58;95829.00;1679818;83;21175;-61
2021/03/29 07:29:32;;;;;;;31.20;20.10;;;;;;;6.27;55.73;95827.02;1678253;84;21310;-61
2021/03/29 07:32:04;;;;;;;22.30;16.70;;;;;;;6.39;56.02;95829.36;1701392;83;21639;-59
2021/03/29 07:34:51;;;;;;;18.85;14.18;;;;;;;6.68;55.13;95825.39;1730014;82;21168;-60
2021/03/29 07:37:41;;;;;;;21.82;17.85;;;;;;;6.90;54.70;95826.86;1709075;82;22334;-62
2021/03/29 07:40:36;;;;;;;20.85;15.15;;;;;;;7.08;54.90;95828.94;1732355;82;21576;-55
2021/03/29 07:43:19;;;;;;;19.57;14.20;;;;;;;7.28;54.46;95817.88;1735987;82;21204;-66
2021/03/29 07:45:54;;;;;;;23.85;14.60;;;;;;;7.41;53.31;95824.45;1725623;81;22392;-62
2021/03/29 07:48:40;;;;;;;20.23;11.88;;;;;;;7.59;53.19;95817.48;1709226;82;21155;-67
2021/03/29 07:51:14;;;;;;;17.98;11.55;;;;;;;7.71;52.28;95815.03;1750292;80;21391;-58
2021/03/29 07:53:51;;;;;;;26.17;14.83;;;;;;;7.89;51.80;95810.80;1740679;81;21261;-58
2021/03/29 07:56:40;;;;;;;24.15;11.88;;;;;;;8.12;51.63;95810.41;1739114;81;21938;-56
2021/03/29 07:59:09;;;;;;;19.57;11.25;;;;;;;8.41;51.18;95817.81;1747356;81;21163;-55
2021/03/29 08:02:01;;;;;;;16.95;11.30;;;;;;;8.59;49.86;95817.03;1746344;81;21587;-57
2021/03/29 08:05:05;;;;;;;18.23;11.03;;;;;;;8.66;49.59;95818.32;1740855;81;22495;-73
2021/03/29 08:07:46;;;;;;;17.73;11.03;;;;;;;8.66;48.45;95817.70;1753925;80;21215;-63
2021/03/29 08:10:16;;;;;;;19.27;12.80;;;;;;;8.50;48.60;95818.89;1751111;80;21175;-59
2021/03/29 08:13:06;;;;;;;19.07;12.30;;;;;;;8.42;49.20;95819.36;1751970;80;21176;-58
2021/03/29 08:16:01;;;;;;;14.73;10.40;;;;;;;8.53;48.83;95814.53;1752637;81;21671;-62
2021/03/29 08:19:15;;;;;;;16.62;11.63;;;;;;;8.66;48.15;95817.70;1741027;81;21190;-66
2021/03/29 08:22:03;;;;;;;17.60;10.35;;;;;;;8.97;47.35;95816.58;1734630;81;21236;-59
2021/03/29 08:24:45;;;;;;;21.82;10.08;;;;;;;9.23;46.29;95815.26;1711576;82;21220;-63
2021/03/29 08:27:23;;;;;;;22.40;11.08;;;;;;;9.25;46.05;95818.37;1714915;82;21531;-58
2021/03/29 08:29:55;;;;;;;18.20;10.53;;;;;;;9.27;45.42;95817.36;1736797;82;21214;-61
2021/03/29 08:32:33;;;;;;;14.25;10.20;;;;;;;9.33;45.32;95819.84;1738507;81;21214;-58
2021/03/29 08:35:08;;;;;;;22.70;10.95;;;;;;;9.46;45.83;95820.82;1745188;82;21024;-61
2021/03/29 08:37:44;;;;;;;12.35;8.80;;;;;;;9.62;46.04;95822.97;1739464;81;21233;-65
2021/03/29 08:40:15;;;;;;;15.35;9.23;;;;;;;9.81;46.49;95823.67;1746395;82;21139;-59
2021/03/29 08:42:45;;;;;;;35.65;11.75;;;;;;;9.95;44.20;95825.59;1739050;81;21242;-61
2021/03/29 08:45:21;;;;;;;46.75;13.35;;;;;;;9.91;43.20;95825.46;1739642;81;22068;-58
2021/03/29 08:47:56;;;;;;;32.53;12.03;;;;;;;9.85;42.26;95822.43;1720587;83;21159;-60
2021/03/29 08:50:34;;;;;;;24.55;9.25;;;;;;;9.84;42.21;95836.58;1692749;83;21230;-59
2021/03/29 08:53:10;;;;;;;13.18;7.62;;;;;;;9.95;43.60;95823.45;1722061;83;21108;-59
2021/03/29 08:55:41;;;;;;;19.65;11.65;;;;;;;10.14;43.87;95831.03;1718227;83;21828;-60
2021/03/29 08:58:10;;;;;;;12.20;7.75;;;;;;;10.28;42.82;95825.28;1719126;83;21369;-60
2021/03/29 09:00:40;;;;;;;19.73;7.25;;;;;;;10.36;41.77;95826.73;1719027;81;21195;-64
2021/03/29 09:03:20;;;;;;;9.85;5.97;;;;;;;10.56;40.06;95827.55;1689535;84;21174;-62
2021/03/29 09:05:48;;;;;;;13.75;7.20;;;;;;;10.64;39.52;95828.96;1716197;82;21227;-59
2021/03/29 09:08:16;;;;;;;8.15;5.75;;;;;;;10.67;39.64;95830.87;1719979;83;21189;-64
2021/03/29 09:10:47;;;;;;;15.88;7.47;;;;;;;10.82;38.92;95818.58;1718978;83;22138;-66
2021/03/29 09:13:16;;;;;;;15.75;6.85;;;;;;;11.07;38.26;95832.66;1757211;80;21752;-59
2021/03/29 09:15:48;;;;;;;6.75;5.45;;;;;;;11.24;38.05;95824.63;1752153;81;21240;-60
2021/03/29 09:18:18;;;;;;;;;;;;;;;11.28;37.29;95822.58;1692550;84;21187;-61
2021/03/29 09:20:51;;;;;;;7.00;4.62;;;;;;;11.25;36.68;95817.13;1750974;81;20270;-65
2021/03/29 09:23:22;;;;;;;;;;;;;;;11.23;36.83;95816.78;1754048;81;21915;-63
2021/03/29 09:25:53;;;;;;;21.17;5.78;;;;;;;11.29;36.09;95816.45;1748842;81;20273;-66
2021/03/29 09:31:10;;;;;;;19.92;6.30;;;;;;;11.14;36.21;95820.11;1673963;84;22034;-63
2021/03/29 09:33:42;;;;;;;10.32;5.60;;;;;;;11.09;37.16;95819.23;1708052;81;21504;-63
2021/03/29 09:36:14;;;;;;;12.63;5.42;;;;;;;11.15;35.61;95807.13;1750289;80;21174;-59
2021/03/29 09:38:44;;;;;;;13.00;7.12;;;;;;;11.18;36.42;95809.78;1746888;80;21211;-61
2021/03/29 09:41:23;;;;;;;9.93;5.53;;;;;;;11.17;36.13;95817.88;1676827;84;21190;-60
2021/03/29 09:43:53;;;;;;;12.25;5.67;;;;;;;11.04;35.85;95823.08;1690203;84;21557;-61
2021/03/29 09:46:32;;;;;;;9.70;6.42;;;;;;;11.06;36.48;95818.70;1674938;82;21660;-66
2021/03/29 09:49:15;;;;;;;12.47;9.40;;;;;;;11.02;36.84;95821.34;1727069;81;21444;-58
2021/03/29 09:51:47;;;;;;;11.45;5.85;;;;;;;11.04;36.01;95834.88;1718380;81;21204;-59
2021/03/29 09:54:34;;;;;;;9.75;6.22;;;;;;;11.05;36.84;95819.13;1696233;81;21922;-64
2021/03/29 09:57:19;;;;;;;8.20;5.45;;;;;;;11.04;36.62;95823.87;1754069;80;21406;-61
2021/03/29 09:59:47;;;;;;;10.10;5.33;;;;;;;11.13;38.27;95822.69;1737741;81;21151;-58
2021/03/29 10:02:25;;;;;;;6.15;4.60;;;;;;;11.33;37.88;95815.80;1742386;80;21395;-64
2021/03/29 10:05:04;;;;;;;9.53;4.67;;;;;;;11.49;38.19;95819.36;1735324;81;21230;-60
2021/03/29 10:07:32;;;;;;;8.40;5.03;;;;;;;11.64;37.63;95821.23;1749816;81;22173;-58
2021/03/29 10:10:06;;;;;;;5.85;4.05;;;;;;;11.69;36.64;95820.12;1744342;81;21198;-58
2021/03/29 10:12:34;;;;;;;13.90;6.67;;;;;;;11.79;36.41;95822.47;1736439;81;21203;-59
2021/03/29 10:15:12;;;;;;;11.40;7.22;;;;;;;11.89;36.18;95827.73;1747910;82;21385;-58
2021/03/29 10:17:40;;;;;;;21.05;8.28;;;;;;;11.98;35.60;95823.01;1747309;81;21182;-63
2021/03/29 10:20:16;;;;;;;19.95;7.45;;;;;;;11.98;36.15;95823.80;1719545;82;21174;-60
2021/03/29 10:22:44;;;;;;;10.98;4.90;;;;;;;11.97;36.25;95818.12;1748273;82;21107;-67
2021/03/29 10:27:55;;;;;;;14.98;9.23;;;;;;;12.36;38.15;95824.84;1870127;75;21957;-68
2021/03/29 10:30:28;;;;;;;15.25;6.47;;;;;;;13.11;37.02;95825.99;1837768;78;22216;-58
2021/03/29 10:32:59;;;;;;;23.87;5.85;;;;;;;14.04;35.59;95829.76;1819458;77;21288;-56
2021/03/29 10:35:29;;;;;;;5.90;4.25;;;;;;;14.93;35.09;95827.19;1776247;79;21668;-58
2021/03/29 10:37:57;;;;;;;8.13;4.75;;;;;;;15.41;33.37;95831.63;1803870;79;21256;-60
2021/03/29 10:40:27;;;;;;;10.08;4.58;;;;;;;15.55;32.29;95822.00;1804170;78;21231;-63
2021/03/29 10:42:55;;;;;;;21.12;13.62;;;;;;;15.58;31.07;95823.86;1803710;79;22313;-63
2021/03/29 10:45:23;;;;;;;25.95;9.65;;;;;;;15.27;30.63;95821.61;1804080;79;21191;-59
2021/03/29 10:47:51;;;;;;;11.25;7.55;;;;;;;14.85;31.97;95827.27;1803907;79;21208;-61
2021/03/29 10:50:21;;;;;;;15.15;5.55;;;;;;;14.62;31.27;95832.59;1804360;78;22232;-58
2021/03/29 10:52:49;;;;;;;8.63;4.40;;;;;;;14.43;31.27;95834.25;1804789;78;21652;-61
2021/03/29 10:55:19;;;;;;;19.05;6.15;;;;;;;14.11;31.58;95824.78;1803982;79;21208;-57
2021/03/29 10:57:47;;;;;;;14.95;6.40;;;;;;;14.41;32.85;95821.47;1805040;79;21640;-65
2021/03/29 11:00:16;;;;;;;9.60;4.87;;;;;;;15.06;32.38;95815.44;1804177;79;22498;-60
2021/03/29 11:02:43;;;;;;;13.32;4.80;;;;;;;15.35;32.17;95808.45;1774952;79;21175;-65
2021/03/29 11:05:14;;;;;;;9.08;5.17;;;;;;;15.39;32.55;95810.48;1804407;78;21192;-62
2021/03/29 11:07:42;;;;;;;7.37;4.35;;;;;;;15.56;32.24;95810.43;1804868;78;21637;-61
2021/03/29 11:10:14;;;;;;;25.52;5.30;;;;;;;15.66;30.64;95809.27;1802963;78;21361;-61
2021/03/29 11:12:42;;;;;;;7.62;5.00;;;;;;;15.51;30.20;95811.03;1788099;78;21144;-60
2021/03/29 11:15:14;;;;;;;9.55;5.40;;;;;;;15.14;30.34;95818.91;1784423;78;21196;-58
2021/03/29 11:17:44;;;;;;;11.83;5.30;;;;;;;15.02;31.84;95816.95;1795242;78;21203;-63
2021/03/29 11:20:12;;;;;;;14.00;6.72;;;;;;;15.07;32.50;95823.92;1798936;78;21205;-67
2021/03/29 11:22:43;;;;;;;10.23;4.95;;;;;;;15.09;31.54;95813.94;1757849;78;21362;-63
2021/03/29 11:25:13;;;;;;;11.25;5.60;;;;;;;14.75;31.87;95813.16;1785083;79;21484;-57
2021/03/29 11:27:41;;;;;;;7.97;5.42;;;;;;;14.54;32.31;95820.22;1798425;79;21204;-59
2021/03/29 11:30:13;;;;;;;12.85;6.47;;;;;;;14.35;32.45;95814.92;1790338;78;21150;-63
2021/03/29 11:32:43;;;;;;;7.87;5.12;;;;;;;14.12;32.50;95815.85;1756013;79;21166;-61
2021/03/29 11:35:12;;;;;;;12.23;5.83;;;;;;;13.78;32.63;95817.15;1738917;81;21666;-64
2021/03/29 11:37:40;;;;;;;9.23;5.53;;;;;;;13.56;33.85;95810.68;1742126;81;21213;-63
2021/03/29 11:40:11;;;;;;;18.75;6.37;;;;;;;13.47;34.20;95810.57;1747656;80;21145;-57
2021/03/29 11:42:40;;;;;;;10.55;5.65;;;;;;;13.43;33.61;95811.29;1737376;81;21238;-67
2021/03/29 11:45:10;;;;;;;6.28;5.12;;;;;;;13.55;34.04;95803.02;1748085;81;21185;-64
2021/03/29 11:47:39;;;;;;;8.90;6.05;;;;;;;13.63;32.87;95809.11;1714278;81;21266;-65
2021/03/29 11:50:12;;;;;;;7.70;4.78;;;;;;;13.56;33.75;95809.30;1742415;80;21221;-71
2021/03/29 11:52:42;;;;;;;8.08;5.47;;;;;;;13.50;33.79;95811.06;1738037;80;21248;-63
2021/03/29 11:55:11;;;;;;;7.50;5.62;;;;;;;13.44;33.86;95813.59;1748868;81;21887;-58